Time;durP1;ratioP1;P1;durP2;ratioP2;P2;SDS_P1;SDS_P2;PMS_P1;PMS_P2;Temp;Humidity;BMP_temperature;BMP_pressure;BME280_temperature;BME280_humidity;BME280_pressure;Samples;Min_cycle;Max_cycle;Signal;HPM_P1;HPM_P2
2021/09/17 00:00:40;;;;;;;6.00;2.67;;;;;;;14.74;85.48;100168.17;21087392;82;99465;-82
2021/09/17 00:30:42;;;;;;;5.23;3.23;;;;;;;14.96;85.49;100159.24;21524631;80;99682;-83
2021/09/17 01:00:43;;;;;;;6.42;3.08;;;;;;;15.09;85.63;100127.63;21541013;80;99313;-83
2021/09/17 01:30:44;;;;;;;5.30;2.90;;;;;;;15.14;85.73;100118.23;21362218;80;99678;-82
2021/09/17 02:00:46;;;;;;;6.40;3.75;;;;;;;15.17;86.58;100088.91;21330054;82;112328;-83
2021/09/17 02:30:48;;;;;;;7.35;3.10;;;;;;;15.07;87.80;100062.90;21355500;82;100232;-81
2021/09/17 03:00:49;;;;;;;8.40;4.68;;;;;;;15.22;88.61;100053.80;21334416;81;101273;-82
2021/09/17 03:30:50;;;;;;;8.33;4.85;;;;;;;15.26;89.28;100030.35;21328642;81;99601;-83
2021/09/17 04:00:51;;;;;;;10.30;4.12;;;;;;;15.34;89.71;100023.55;21335451;82;100728;-83
2021/09/17 04:30:52;;;;;;;7.97;4.53;;;;;;;15.40;89.79;100011.38;21334352;81;140597;-82
2021/09/17 05:00:53;;;;;;;7.63;4.57;;;;;;;15.50;90.14;100010.42;21347700;82;103168;-84
2021/09/17 05:30:54;;;;;;;;;;;;;;;15.52;90.53;100003.26;21548973;80;99566;-83
2021/09/17 06:00:54;;;;;;;9.60;4.03;;;;;;;15.60;92.55;99999.77;21549005;80;85484;-81
2021/09/17 06:30:55;;;;;;;12.53;5.25;;;;;;;15.85;91.89;100017.58;21385593;80;101386;-80
2021/09/17 07:00:56;;;;;;;8.50;4.30;;;;;;;16.25;91.47;100001.81;21337292;82;99860;-81
2021/09/17 07:30:58;;;;;;;8.08;3.67;;;;;;;16.70;89.95;100009.87;21530256;80;99644;-81
2021/09/17 08:00:58;;;;;;;8.88;2.95;;;;;;;16.72;89.15;100013.79;21543719;80;99646;-81
2021/09/17 08:31:02;;;;;;;3.65;1.60;;;;;;;16.56;89.30;100026.22;21423871;80;99284;-82
2021/09/17 09:01:03;;;;;;;6.66;1.82;;;;;;;16.63;89.05;100020.52;21353550;82;99702;-83
2021/09/17 09:31:14;;;;;;;2.83;1.20;;;;;;;16.92;87.57;100035.42;21442468;81;99341;-81
2021/09/17 10:01:19;;;;;;;2.70;1.10;;;;;;;17.02;86.34;100041.96;21454678;81;99459;-82
2021/09/17 10:31:20;;;;;;;2.80;1.57;;;;;;;16.88;88.87;100043.04;21550416;80;99202;-84
2021/09/17 11:01:21;;;;;;;4.20;2.33;;;;;;;16.90;90.84;100045.39;21467746;80;99407;-84
2021/09/17 11:31:22;;;;;;;4.00;2.02;;;;;;;17.60;90.96;100028.56;21609957;80;130872;-81
2021/09/17 12:01:25;;;;;;;5.87;2.47;;;;;;;19.26;89.99;100018.88;21595751;80;102692;-83
2021/09/17 12:31:37;;;;;;;3.17;1.23;;;;;;;19.56;85.85;100008.53;21574350;80;99736;-82
2021/09/17 13:01:38;;;;;;;3.23;1.13;;;;;;;19.56;82.96;100004.35;21566105;80;99600;-83
2021/09/17 13:31:39;;;;;;;2.50;1.37;;;;;;;19.35;80.30;100011.23;21609969;80;99394;-83
2021/09/17 14:01:40;;;;;;;3.52;1.45;;;;;;;18.86;79.87;100003.70;21600247;80;232119;-87
2021/09/17 14:31:43;;;;;;;4.87;2.17;;;;;;;18.49;80.61;100023.90;20846007;79;1239592;-86
2021/09/17 15:01:44;;;;;;;3.57;2.00;;;;;;;17.23;84.49;100033.93;21012447;80;5507133;-85
2021/09/17 15:31:46;;;;;;;;;;;;;;;17.02;86.94;100023.89;20511575;83;178824;-84
2021/09/17 16:01:47;;;;;;;5.62;2.80;;;;;;;16.81;88.54;100041.80;20587588;83;85561;-85
2021/09/17 16:31:48;;;;;;;2.23;1.50;;;;;;;16.46;89.89;100059.15;20581096;83;99235;-85
2021/09/17 17:01:49;;;;;;;4.83;2.02;;;;;;;16.23;88.92;100068.87;20539437;83;164157;-83
2021/09/17 17:31:51;;;;;;;5.23;1.97;;;;;;;15.91;90.61;100073.40;20435475;83;5430427;-82
2021/09/17 18:01:52;;;;;;;4.05;2.60;;;;;;;15.56;91.02;100086.41;20422595;83;2235779;-83
2021/09/17 18:31:53;;;;;;;5.33;2.80;;;;;;;15.53;91.34;100098.36;20339461;84;99606;-82
2021/09/17 19:01:54;;;;;;;6.70;4.03;;;;;;;15.28;91.58;100112.53;20336213;82;99251;-83
2021/09/17 19:31:56;;;;;;;5.83;3.80;;;;;;;15.17;91.54;100117.42;20316013;84;99660;-83
2021/09/17 20:01:57;;;;;;;7.00;4.33;;;;;;;15.06;91.93;100130.62;20315205;84;99269;-82
2021/09/17 20:32:00;;;;;;;7.75;3.98;;;;;;;14.93;93.10;100125.41;20360016;84;113400;-82
2021/09/17 21:02:01;;;;;;;7.97;4.70;;;;;;;14.80;92.83;100135.47;20340931;84;99797;-82
2021/09/17 21:32:03;;;;;;;7.35;3.90;;;;;;;14.70;92.94;100148.83;20294158;84;106947;-82
2021/09/17 22:02:04;;;;;;;5.37;3.13;;;;;;;14.56;93.23;100130.95;20295266;83;99930;-82
2021/09/17 22:32:05;;;;;;;6.28;3.55;;;;;;;14.48;93.26;100123.92;20309814;84;100533;-81
2021/09/17 23:02:06;;;;;;;6.37;3.83;;;;;;;14.44;93.37;100130.70;20298344;84;99497;-82
2021/09/17 23:32:08;;;;;;;7.22;3.87;;;;;;;14.38;93.04;100140.65;20329042;84;99261;-81
